Time;durP1;ratioP1;P1;durP2;ratioP2;P2;SDS_P1;SDS_P2;PMS_P1;PMS_P2;Temp;Humidity;BMP_temperature;BMP_pressure;BME280_temperature;BME280_humidity;BME280_pressure;Samples;Min_cycle;Max_cycle;Signal;HPM_P1;HPM_P2
2023/03/16 00:03:33;;;;;;;5.63;1.73;;;6.20;1.00;;;;;;25916091;22;20023;-43
2023/03/16 00:13:34;;;;;;;2.20;1.17;;;6.10;1.00;;;;;;25906723;22;20026;-43
2023/03/16 00:23:35;;;;;;;3.78;1.10;;;6.20;1.00;;;;;;25910370;22;20520;-43
2023/03/16 00:33:44;;;;;;;4.35;1.65;;;6.20;1.00;;;;;;25912790;22;20473;-43
2023/03/16 00:43:45;;;;;;;5.63;2.10;;;6.30;1.00;;;;;;25912979;22;20456;-43
2023/03/16 00:53:46;;;;;;;4.95;1.80;;;6.20;1.00;;;;;;25901398;22;20026;-43
2023/03/16 01:03:47;;;;;;;3.72;1.60;;;6.30;1.00;;;;;;25894781;22;20006;-42
2023/03/16 01:13:53;;;;;;;4.13;1.63;;;6.30;1.00;;;;;;25874882;22;20015;-42
2023/03/16 01:23:54;;;;;;;3.92;1.98;;;6.20;1.00;;;;;;25898203;22;20014;-43
2023/03/16 01:33:55;;;;;;;4.38;2.03;;;6.20;1.00;;;;;;25896059;22;20016;-43
2023/03/16 01:43:57;;;;;;;2.15;1.00;;;6.20;1.00;;;;;;25900606;22;20020;-43
2023/03/16 01:54:24;;;;;;;2.67;1.20;;;6.10;1.00;;;;;;25898845;22;20020;-43
2023/03/16 02:04:47;;;;;;;5.10;2.40;;;6.20;1.00;;;;;;25862182;22;20512;-43
2023/03/16 02:14:49;;;;;;;2.88;1.27;;;6.10;1.00;;;;;;25907559;22;20220;-43
2023/03/16 02:24:52;;;;;;;4.20;1.67;;;6.10;1.00;;;;;;25897827;22;20004;-43
2023/03/16 02:34:55;;;;;;;4.80;1.42;;;6.10;1.00;;;;;;25903123;22;20018;-43
2023/03/16 02:44:59;;;;;;;4.38;2.40;;;6.10;1.00;;;;;;25907254;22;20060;-42
2023/03/16 02:55:00;;;;;;;3.53;1.65;;;6.20;1.00;;;;;;25902386;22;22135;-43
2023/03/16 03:05:01;;;;;;;3.03;1.30;;;6.20;1.00;;;;;;25900687;22;20050;-43
2023/03/16 03:15:02;;;;;;;2.90;1.30;;;6.20;1.00;;;;;;25903061;22;20022;-43
2023/03/16 03:25:04;;;;;;;8.32;2.30;;;6.10;1.00;;;;;;25903058;22;20014;-43
2023/03/16 03:35:05;;;;;;;4.50;2.42;;;5.90;1.00;;;;;;25888422;22;20119;-43
2023/03/16 03:45:08;;;;;;;3.35;1.75;;;5.90;1.00;;;;;;25905615;22;20810;-43
2023/03/16 03:55:09;;;;;;;3.22;1.55;;;5.90;1.00;;;;;;25898282;22;20011;-43
2023/03/16 04:05:10;;;;;;;3.63;1.58;;;5.80;1.00;;;;;;25899372;22;20342;-43
2023/03/16 04:15:11;;;;;;;3.65;1.95;;;5.80;1.00;;;;;;25899990;22;20409;-43
2023/03/16 04:25:16;;;;;;;3.13;1.70;;;5.90;1.00;;;;;;25872815;22;20016;-42
2023/03/16 04:35:17;;;;;;;3.55;1.65;;;5.80;1.00;;;;;;25894854;22;20023;-43
2023/03/16 04:45:18;;;;;;;3.42;2.03;;;5.80;1.00;;;;;;25902627;22;20028;-43
2023/03/16 04:55:21;;;;;;;3.47;1.15;;;5.90;1.00;;;;;;25890538;22;20334;-42
2023/03/16 05:05:22;;;;;;;5.60;1.75;;;6.00;1.00;;;;;;25899105;22;21316;-43
2023/03/16 05:15:24;;;;;;;6.82;1.67;;;5.90;1.00;;;;;;25900701;22;20023;-43
2023/03/16 05:25:25;;;;;;;3.70;1.42;;;5.90;1.00;;;;;;25904869;22;20526;-43
2023/03/16 05:35:26;;;;;;;4.55;2.80;;;5.80;1.00;;;;;;25892952;22;20028;-43
2023/03/16 05:45:27;;;;;;;3.90;1.45;;;5.70;1.00;;;;;;25903150;22;20017;-42
2023/03/16 05:55:29;;;;;;;3.15;1.60;;;5.70;1.00;;;;;;25904256;22;20020;-43
2023/03/16 06:05:31;;;;;;;1.83;1.00;;;5.70;2.20;;;;;;25909832;22;20372;-43
2023/03/16 06:15:32;;;;;;;3.00;1.35;;;5.80;2.60;;;;;;25905085;22;20417;-43
2023/03/16 06:25:33;;;;;;;3.10;1.50;;;5.70;3.10;;;;;;25904701;22;20008;-43
2023/03/16 06:35:34;;;;;;;3.85;1.55;;;5.80;2.70;;;;;;25903226;22;20449;-43
2023/03/16 06:45:35;;;;;;;4.45;2.05;;;5.80;3.40;;;;;;25903880;22;20012;-43
2023/03/16 06:55:36;;;;;;;2.40;1.23;;;5.90;1.00;;;;;;25882165;22;20083;-43
2023/03/16 07:05:37;;;;;;;12.43;2.38;;;5.90;1.00;;;;;;25896613;22;20224;-43
2023/03/16 07:15:38;;;;;;;3.17;1.48;;;6.00;1.00;;;;;;25917087;22;20016;-43
2023/03/16 07:25:39;;;;;;;3.00;1.40;;;6.00;2.00;;;;;;25915583;22;20019;-43
2023/03/16 07:35:40;;;;;;;2.92;1.13;;;6.00;1.20;;;;;;25912664;22;20102;-43
2023/03/16 07:45:41;;;;;;;3.88;1.50;;;6.20;1.00;;;;;;25916217;22;21608;-43
2023/03/16 07:55:43;;;;;;;2.20;1.23;;;6.20;1.00;;;;;;25915710;22;20020;-43
2023/03/16 08:05:44;;;;;;;2.15;0.77;;;6.40;1.00;;;;;;25912046;22;20448;-42
2023/03/16 08:15:46;;;;;;;6.55;1.77;;;6.50;1.00;;;;;;25912553;22;20015;-43
2023/03/16 08:25:51;;;;;;;1.60;1.05;;;6.80;1.00;;;;;;25914137;22;20016;-44
2023/03/16 08:35:52;;;;;;;4.75;1.23;;;6.90;1.00;;;;;;25909194;22;20030;-43
2023/03/16 08:45:54;;;;;;;2.42;0.80;;;7.10;1.00;;;;;;25914649;22;20078;-43
2023/03/16 08:56:03;;;;;;;1.88;0.70;;;7.30;1.00;;;;;;25911334;22;20022;-43
2023/03/16 09:06:07;;;;;;;1.92;0.95;;;7.40;1.00;;;;;;25908111;22;20011;-44
2023/03/16 09:16:10;;;;;;;4.28;1.55;;;7.50;1.00;;;;;;25907939;22;20015;-43
2023/03/16 09:26:14;;;;;;;3.05;1.55;;;7.60;1.00;;;;;;25918123;22;20016;-43
2023/03/16 09:36:15;;;;;;;1.65;0.43;;;7.80;1.00;;;;;;25917962;22;20020;-41
2023/03/16 09:46:24;;;;;;;5.15;1.13;;;8.10;1.00;;;;;;25918567;22;20018;-40
2023/03/16 09:56:36;;;;;;;3.38;1.25;;;8.50;1.00;;;;;;25917957;22;20102;-41
2023/03/16 10:06:47;;;;;;;1.38;0.80;;;8.80;1.00;;;;;;25916297;22;20086;-41
2023/03/16 10:16:54;;;;;;;5.20;1.40;;;9.10;1.00;;;;;;25899182;22;20446;-41
2023/03/16 10:26:59;;;;;;;1.83;0.70;;;9.60;1.00;;;;;;25916239;22;20028;-41
2023/03/16 10:37:02;;;;;;;1.42;0.68;;;9.80;1.00;;;;;;25911655;22;20023;-41
2023/03/16 10:47:06;;;;;;;3.10;0.75;;;10.20;1.00;;;;;;25924322;22;20086;-41
2023/03/16 10:57:20;;;;;;;2.60;0.70;;;10.20;1.00;;;;;;25925605;22;20382;-41
2023/03/16 11:07:23;;;;;;;1.05;0.55;;;10.20;1.00;;;;;;25921019;22;20087;-41
2023/03/16 11:17:36;;;;;;;3.30;1.15;;;10.40;1.00;;;;;;25917663;22;20561;-41
2023/03/16 11:28:00;;;;;;;1.30;0.65;;;10.60;1.00;;;;;;25915712;22;20306;-41
2023/03/16 11:38:14;;;;;;;1.55;0.60;;;10.80;1.00;;;;;;25916881;22;20528;-41
2023/03/16 11:48:35;;;;;;;2.00;0.40;;;11.20;1.00;;;;;;25916729;22;20015;-41
2023/03/16 11:58:51;;;;;;;3.95;0.65;;;11.40;1.00;;;;;;25908622;22;20533;-41
2023/03/16 12:09:17;;;;;;;1.48;0.40;;;11.50;1.00;;;;;;25917683;22;20039;-43
2023/03/16 12:19:32;;;;;;;1.77;0.80;;;11.60;1.00;;;;;;25917124;22;20050;-43
2023/03/16 12:29:41;;;;;;;2.28;0.93;;;11.80;1.00;;;;;;25906098;22;20037;-43
2023/03/16 12:40:05;;;;;;;3.00;0.88;;;11.80;1.00;;;;;;25912732;22;20027;-44
2023/03/16 12:50:10;;;;;;;2.45;0.50;;;12.10;1.00;;;;;;25913819;22;20016;-42
2023/03/16 13:00:13;;;;;;;0.98;0.40;;;13.10;1.00;;;;;;25910834;22;20033;-43
2023/03/16 13:10:16;;;;;;;1.70;0.52;;;13.50;1.00;;;;;;25917219;22;20030;-43
2023/03/16 13:20:29;;;;;;;1.55;0.60;;;13.80;1.00;;;;;;25914180;22;20087;-42
2023/03/16 13:30:32;;;;;;;1.10;0.40;;;14.00;1.00;;;;;;25909548;22;20588;-42
2023/03/16 13:40:36;;;;;;;0.77;0.30;;;14.50;1.00;;;;;;25917007;22;20138;-41
2023/03/16 13:50:40;;;;;;;0.68;0.20;;;14.60;1.00;;;;;;25903920;22;20315;-41
2023/03/16 14:00:44;;;;;;;1.83;0.68;;;14.60;1.00;;;;;;25916402;22;20094;-41
2023/03/16 14:10:46;;;;;;;1.70;0.65;;;14.80;1.00;;;;;;25917878;22;20086;-42
2023/03/16 14:20:52;;;;;;;1.10;0.57;;;14.80;1.00;;;;;;25916881;22;20098;-42
2023/03/16 14:31:02;;;;;;;1.92;0.85;;;15.20;1.00;;;;;;25918788;22;20444;-41
2023/03/16 14:41:25;;;;;;;1.13;0.50;;;15.40;1.00;;;;;;25920470;22;20029;-41
2023/03/16 14:51:28;;;;;;;3.03;1.35;;;14.80;1.00;;;;;;25913719;22;21279;-40
2023/03/16 15:01:30;;;;;;;0.93;0.30;;;14.90;1.00;;;;;;25917963;22;20555;-40
2023/03/16 15:11:31;;;;;;;2.20;0.52;;;14.10;1.00;;;;;;25922208;22;20106;-42
2023/03/16 15:21:32;;;;;;;0.95;0.50;;;13.90;1.00;;;;;;25913280;22;20030;-42
2023/03/16 15:31:33;;;;;;;1.30;0.30;;;13.90;1.00;;;;;;25892283;22;20451;-41
2023/03/16 15:41:34;;;;;;;1.35;0.60;;;14.00;1.00;;;;;;25912648;22;20031;-41
2023/03/16 15:51:35;;;;;;;3.25;0.80;;;14.00;1.00;;;;;;25900859;22;20442;-41
2023/03/16 16:01:43;;;;;;;3.60;1.75;;;14.00;1.00;;;;;;25910887;22;20012;-41
2023/03/16 16:11:47;;;;;;;1.90;0.73;;;14.00;1.00;;;;;;25875902;22;21075;-41
2023/03/16 16:21:48;;;;;;;2.45;0.75;;;14.10;1.00;;;;;;25906549;22;20037;-41
2023/03/16 16:31:52;;;;;;;1.95;0.55;;;14.00;1.00;;;;;;25898929;22;20022;-42
2023/03/16 16:41:55;;;;;;;1.08;0.20;;;13.80;1.00;;;;;;25909408;22;20352;-41
2023/03/16 16:51:57;;;;;;;1.98;1.17;;;13.70;1.00;;;;;;25875029;22;20029;-41
2023/03/16 17:02:00;;;;;;;1.05;0.45;;;13.60;1.00;;;;;;25903317;22;20384;-41
2023/03/16 17:12:01;;;;;;;1.40;0.65;;;13.40;1.00;;;;;;25884497;22;20019;-41
2023/03/16 17:22:02;;;;;;;1.58;0.55;;;13.20;1.00;;;;;;25900157;22;20016;-42
2023/03/16 17:32:17;;;;;;;1.70;0.45;;;13.00;1.00;;;;;;25893098;22;20333;-41
2023/03/16 17:42:21;;;;;;;0.60;0.13;;;12.80;1.00;;;;;;25920678;22;20307;-42
2023/03/16 17:52:28;;;;;;;0.57;0.32;;;12.80;1.00;;;;;;25924806;22;20114;-41
2023/03/16 18:02:52;;;;;;;1.75;0.55;;;12.80;1.00;;;;;;25912486;22;21564;-41
2023/03/16 18:12:58;;;;;;;0.65;0.30;;;12.60;1.00;;;;;;25900373;22;20044;-42
2023/03/16 18:23:00;;;;;;;0.75;0.20;;;12.50;1.00;;;;;;25902803;22;20019;-42
2023/03/16 18:33:03;;;;;;;3.58;1.20;;;12.30;1.00;;;;;;25925546;22;20348;-42
2023/03/16 18:43:05;;;;;;;1.55;0.32;;;12.20;1.00;;;;;;25911544;22;20527;-42
2023/03/16 18:53:14;;;;;;;0.70;0.35;;;12.10;1.00;;;;;;25907908;22;20026;-42
2023/03/16 19:03:29;;;;;;;1.13;0.40;;;12.00;1.00;;;;;;25920944;22;20094;-42
2023/03/16 19:13:30;;;;;;;0.55;0.30;;;11.90;1.00;;;;;;25887545;22;20392;-42
2023/03/16 19:23:35;;;;;;;1.50;0.60;;;11.90;1.00;;;;;;25893448;22;20033;-42
2023/03/16 19:33:37;;;;;;;1.58;0.50;;;11.80;1.00;;;;;;25898637;22;20012;-41
2023/03/16 19:43:38;;;;;;;0.80;0.20;;;11.80;1.00;;;;;;25893594;22;20038;-42
2023/03/16 19:53:40;;;;;;;3.03;1.17;;;11.60;1.00;;;;;;25900104;22;20024;-42
2023/03/16 20:03:42;;;;;;;0.60;0.28;;;11.50;1.00;;;;;;25900088;22;20423;-42
2023/03/16 20:13:45;;;;;;;1.63;0.70;;;11.30;1.00;;;;;;25893985;22;20029;-42
2023/03/16 20:23:47;;;;;;;8.38;1.13;;;11.20;1.00;;;;;;25894197;22;20315;-42
2023/03/16 20:33:51;;;;;;;4.72;0.88;;;11.10;1.00;;;;;;25903681;22;20014;-42
2023/03/16 20:43:53;;;;;;;1.45;0.50;;;11.10;1.00;;;;;;25907949;22;20024;-42
2023/03/16 20:53:55;;;;;;;1.27;0.52;;;10.80;1.00;;;;;;25903494;22;20030;-42
2023/03/16 21:03:56;;;;;;;2.67;0.90;;;10.80;1.00;;;;;;25904916;22;20480;-42
2023/03/16 21:13:57;;;;;;;1.45;0.50;;;10.80;1.00;;;;;;25902488;22;20020;-42
2023/03/16 21:23:58;;;;;;;0.95;0.52;;;10.60;1.00;;;;;;25900557;22;20008;-42
2023/03/16 21:34:00;;;;;;;1.90;0.75;;;10.50;1.00;;;;;;25898696;22;20016;-42
2023/03/16 21:44:02;;;;;;;2.03;1.15;;;10.40;1.00;;;;;;25891457;22;20460;-42
2023/03/16 21:54:04;;;;;;;2.92;1.20;;;10.40;1.00;;;;;;25885920;22;20016;-42
2023/03/16 22:04:12;;;;;;;3.08;0.80;;;10.20;1.00;;;;;;25874238;22;20016;-42
2023/03/16 22:14:13;;;;;;;1.05;0.60;;;10.10;1.00;;;;;;25908263;22;20301;-42
2023/03/16 22:24:22;;;;;;;1.25;0.80;;;10.10;1.00;;;;;;25890109;22;20016;-42
2023/03/16 22:34:42;;;;;;;1.13;0.52;;;10.10;1.00;;;;;;25911757;22;20030;-42
2023/03/16 22:44:43;;;;;;;3.15;1.17;;;10.10;1.00;;;;;;25912433;22;21590;-42
2023/03/16 22:54:45;;;;;;;5.38;1.20;;;10.10;1.00;;;;;;25912059;22;20469;-42
2023/03/16 23:04:46;;;;;;;2.63;0.70;;;10.10;1.00;;;;;;25903218;22;20380;-42
2023/03/16 23:14:47;;;;;;;2.90;0.98;;;10.10;1.00;;;;;;25908105;22;20207;-42
2023/03/16 23:24:48;;;;;;;2.00;0.95;;;10.00;1.00;;;;;;25906494;22;20011;-42
2023/03/16 23:34:49;;;;;;;6.22;0.90;;;9.90;1.00;;;;;;25899871;22;20012;-42
2023/03/16 23:44:50;;;;;;;2.38;1.30;;;9.80;1.00;;;;;;25905326;22;20322;-42
2023/03/16 23:54:51;;;;;;;1.42;0.73;;;9.80;1.00;;;;;;25900562;22;20360;-42
